sensor_id;sensor_type;location;lat;lon;timestamp;pressure;altitude;pressure_sealevel;temperature;humidity
10921;BME280;5513;50.580;8.818;2023-05-13T00:00:19;99313.84;;;12.04;100.00
10921;BME280;5513;50.580;8.818;2023-05-13T00:02:55;99317.44;;;11.90;100.00
10921;BME280;5513;50.580;8.818;2023-05-13T00:05:26;99310.28;;;11.78;100.00
10921;BME280;5513;50.580;8.818;2023-05-13T00:07:55;99313.63;;;11.67;100.00
10921;BME280;5513;50.580;8.818;2023-05-13T00:10:28;99332.50;;;11.36;100.00
10921;BME280;5513;50.580;8.818;2023-05-13T00:12:56;99312.38;;;11.46;100.00
10921;BME280;5513;50.580;8.818;2023-05-13T00:15:25;99310.69;;;11.45;100.00
10921;BME280;5513;50.580;8.818;2023-05-13T00:17:58;99319.59;;;11.71;100.00
10921;BME280;5513;50.580;8.818;2023-05-13T00:20:27;99319.25;;;11.90;100.00
10921;BME280;5513;50.580;8.818;2023-05-13T00:22:56;99320.31;;;11.87;100.00
10921;BME280;5513;50.580;8.818;2023-05-13T00:25:25;99315.44;;;11.94;100.00
10921;BME280;5513;50.580;8.818;2023-05-13T00:27:54;99315.19;;;11.84;100.00
10921;BME280;5513;50.580;8.818;2023-05-13T00:30:22;99312.16;;;11.76;100.00
10921;BME280;5513;50.580;8.818;2023-05-13T00:32:51;99318.00;;;11.68;100.00
10921;BME280;5513;50.580;8.818;2023-05-13T00:35:22;99310.22;;;11.80;100.00
10921;BME280;5513;50.580;8.818;2023-05-13T00:37:50;99312.66;;;11.83;100.00
10921;BME280;5513;50.580;8.818;2023-05-13T00:40:20;99310.00;;;11.95;100.00
10921;BME280;5513;50.580;8.818;2023-05-13T00:42:49;99306.72;;;11.92;100.00
10921;BME280;5513;50.580;8.818;2023-05-13T00:45:18;99308.66;;;12.02;100.00
10921;BME280;5513;50.580;8.818;2023-05-13T00:47:48;99313.00;;;12.03;100.00
10921;BME280;5513;50.580;8.818;2023-05-13T00:50:17;99309.44;;;11.78;100.00
10921;BME280;5513;50.580;8.818;2023-05-13T00:52:48;99306.22;;;11.72;100.00
10921;BME280;5513;50.580;8.818;2023-05-13T00:55:19;99308.19;;;11.56;100.00
10921;BME280;5513;50.580;8.818;2023-05-13T00:57:48;99310.44;;;11.62;100.00
10921;BME280;5513;50.580;8.818;2023-05-13T01:00:17;99314.25;;;11.58;100.00
10921;BME280;5513;50.580;8.818;2023-05-13T01:02:51;99313.44;;;11.70;100.00
10921;BME280;5513;50.580;8.818;2023-05-13T01:05:27;99314.50;;;11.68;100.00
10921;BME280;5513;50.580;8.818;2023-05-13T01:08:06;99318.00;;;11.68;100.00
10921;BME280;5513;50.580;8.818;2023-05-13T01:10:39;99310.22;;;11.80;100.00
10921;BME280;5513;50.580;8.818;2023-05-13T01:13:11;99306.97;;;11.74;100.00
10921;BME280;5513;50.580;8.818;2023-05-13T01:15:44;99308.13;;;11.70;100.00
10921;BME280;5513;50.580;8.818;2023-05-13T01:18:18;99311.78;;;11.55;100.00
10921;BME280;5513;50.580;8.818;2023-05-13T01:20:47;99311.25;;;11.50;100.00
10921;BME280;5513;50.580;8.818;2023-05-13T01:23:17;99320.84;;;11.65;100.00
10921;BME280;5513;50.580;8.818;2023-05-13T01:25:45;99313.97;;;11.75;100.00
10921;BME280;5513;50.580;8.818;2023-05-13T01:28:14;99321.94;;;11.75;100.00
10921;BME280;5513;50.580;8.818;2023-05-13T01:30:45;99322.03;;;11.74;100.00
10921;BME280;5513;50.580;8.818;2023-05-13T01:33:14;99319.38;;;11.74;100.00
10921;BME280;5513;50.580;8.818;2023-05-13T01:35:44;99324.16;;;11.69;100.00
10921;BME280;5513;50.580;8.818;2023-05-13T01:38:14;99313.53;;;11.69;100.00
10921;BME280;5513;50.580;8.818;2023-05-13T01:40:47;99317.44;;;11.63;100.00
10921;BME280;5513;50.580;8.818;2023-05-13T01:43:20;99319.06;;;11.39;100.00
10921;BME280;5513;50.580;8.818;2023-05-13T01:45:48;99322.72;;;11.36;100.00
10921;BME280;5513;50.580;8.818;2023-05-13T01:48:17;99320.41;;;11.32;100.00
10921;BME280;5513;50.580;8.818;2023-05-13T01:50:45;99326.66;;;11.31;100.00
10921;BME280;5513;50.580;8.818;2023-05-13T01:53:13;99331.47;;;11.24;100.00
10921;BME280;5513;50.580;8.818;2023-05-13T01:55:42;99327.88;;;11.25;100.00
10921;BME280;5513;50.580;8.818;2023-05-13T01:58:11;99338.78;;;11.21;100.00
10921;BME280;5513;50.580;8.818;2023-05-13T02:00:40;99338.88;;;11.19;100.00
10921;BME280;5513;50.580;8.818;2023-05-13T02:03:09;99336.03;;;11.22;100.00
10921;BME280;5513;50.580;8.818;2023-05-13T02:05:38;99336.16;;;11.21;100.00
10921;BME280;5513;50.580;8.818;2023-05-13T02:08:07;99338.22;;;11.30;100.00
10921;BME280;5513;50.580;8.818;2023-05-13T02:10:36;99344.28;;;11.17;100.00
10921;BME280;5513;50.580;8.818;2023-05-13T02:13:04;99343.31;;;11.18;100.00
10921;BME280;5513;50.580;8.818;2023-05-13T02:15:34;99338.59;;;11.24;100.00
10921;BME280;5513;50.580;8.818;2023-05-13T02:18:03;99343.91;;;11.24;100.00
10921;BME280;5513;50.580;8.818;2023-05-13T02:20:31;99342.41;;;11.20;100.00
10921;BME280;5513;50.580;8.818;2023-05-13T02:23:00;99347.78;;;11.18;100.00
10921;BME280;5513;50.580;8.818;2023-05-13T02:25:28;99339.66;;;11.21;100.00
10921;BME280;5513;50.580;8.818;2023-05-13T02:27:59;99341.81;;;11.14;100.00
10921;BME280;5513;50.580;8.818;2023-05-13T02:30:30;99335.47;;;11.31;100.00
10921;BME280;5513;50.580;8.818;2023-05-13T02:33:01;99337.06;;;11.34;100.00
10921;BME280;5513;50.580;8.818;2023-05-13T02:35:30;99334.56;;;11.45;100.00
10921;BME280;5513;50.580;8.818;2023-05-13T02:37:58;99336.56;;;11.41;100.00
10921;BME280;5513;50.580;8.818;2023-05-13T02:40:31;99332.22;;;11.40;100.00
10921;BME280;5513;50.580;8.818;2023-05-13T02:43:00;99339.84;;;11.45;100.00
10921;BME280;5513;50.580;8.818;2023-05-13T02:45:30;99340.81;;;11.44;100.00
10921;BME280;5513;50.580;8.818;2023-05-13T02:48:00;99346.31;;;11.41;100.00
10921;BME280;5513;50.580;8.818;2023-05-13T02:50:28;99346.97;;;11.44;100.00
10921;BME280;5513;50.580;8.818;2023-05-13T02:52:57;99340.84;;;11.57;100.00
10921;BME280;5513;50.580;8.818;2023-05-13T02:55:26;99336.50;;;11.56;100.00
10921;BME280;5513;50.580;8.818;2023-05-13T02:57:54;99333.41;;;11.49;100.00
10921;BME280;5513;50.580;8.818;2023-05-13T03:00:22;99342.31;;;11.48;100.00
10921;BME280;5513;50.580;8.818;2023-05-13T03:02:51;99335.59;;;11.42;100.00
10921;BME280;5513;50.580;8.818;2023-05-13T03:05:22;99339.53;;;11.23;100.00
10921;BME280;5513;50.580;8.818;2023-05-13T03:07:54;99343.72;;;11.12;100.00
10921;BME280;5513;50.580;8.818;2023-05-13T03:10:27;99338.59;;;11.24;100.00
10921;BME280;5513;50.580;8.818;2023-05-13T03:12:58;99332.81;;;11.17;100.00
10921;BME280;5513;50.580;8.818;2023-05-13T03:15:26;99346.84;;;11.05;100.00
10921;BME280;5513;50.580;8.818;2023-05-13T03:17:55;99339.28;;;11.13;100.00
10921;BME280;5513;50.580;8.818;2023-05-13T03:20:25;99343.06;;;11.09;100.00
10921;BME280;5513;50.580;8.818;2023-05-13T03:22:53;99350.94;;;11.10;100.00
10921;BME280;5513;50.580;8.818;2023-05-13T03:25:24;99343.06;;;11.09;100.00
10921;BME280;5513;50.580;8.818;2023-05-13T03:27:53;99341.59;;;10.91;100.00
10921;BME280;5513;50.580;8.818;2023-05-13T03:30:22;99348.47;;;10.79;100.00
10921;BME280;5513;50.580;8.818;2023-05-13T03:32:51;99347.16;;;10.86;100.00
10921;BME280;5513;50.580;8.818;2023-05-13T03:35:20;99357.63;;;10.59;100.00
10921;BME280;5513;50.580;8.818;2023-05-13T03:37:50;99364.47;;;10.77;100.00
10921;BME280;5513;50.580;8.818;2023-05-13T03:40:20;99367.59;;;10.84;100.00
10921;BME280;5513;50.580;8.818;2023-05-13T03:42:52;99372.97;;;10.97;100.00
10921;BME280;5513;50.580;8.818;2023-05-13T03:45:21;99370.72;;;10.91;100.00
10921;BME280;5513;50.580;8.818;2023-05-13T03:47:50;99373.94;;;10.96;100.00
10921;BME280;5513;50.580;8.818;2023-05-13T03:50:24;99366.28;;;10.91;100.00
10921;BME280;5513;50.580;8.818;2023-05-13T03:52:54;99372.69;;;10.87;100.00
10921;BME280;5513;50.580;8.818;2023-05-13T03:55:24;99366.66;;;10.85;100.00
10921;BME280;5513;50.580;8.818;2023-05-13T03:57:53;99366.56;;;10.86;100.00
10921;BME280;5513;50.580;8.818;2023-05-13T04:00:22;99364.28;;;10.80;100.00
10921;BME280;5513;50.580;8.818;2023-05-13T04:02:50;99365.16;;;10.81;100.00
10921;BME280;5513;50.580;8.818;2023-05-13T04:05:18;99373.00;;;10.82;100.00
10921;BME280;5513;50.580;8.818;2023-05-13T04:07:48;99365.69;;;10.86;100.00
10921;BME280;5513;50.580;8.818;2023-05-13T04:10:18;99371.59;;;10.91;100.00
10921;BME280;5513;50.580;8.818;2023-05-13T04:12:50;99374.41;;;10.88;100.00
10921;BME280;5513;50.580;8.818;2023-05-13T04:15:19;99377.06;;;11.02;100.00
10921;BME280;5513;50.580;8.818;2023-05-13T04:17:49;99371.59;;;10.91;100.00
10921;BME280;5513;50.580;8.818;2023-05-13T04:20:25;99371.09;;;10.99;100.00
10921;BME280;5513;50.580;8.818;2023-05-13T04:22:56;99366.56;;;11.01;100.00
10921;BME280;5513;50.580;8.818;2023-05-13T04:25:28;99374.50;;;10.86;100.00
10921;BME280;5513;50.580;8.818;2023-05-13T04:28:00;99371.28;;;11.10;100.00
10921;BME280;5513;50.580;8.818;2023-05-13T04:30:30;99371.19;;;10.97;100.00
10921;BME280;5513;50.580;8.818;2023-05-13T04:32:58;99375.81;;;11.08;100.00
10921;BME280;5513;50.580;8.818;2023-05-13T04:35:29;99366.34;;;11.04;100.00
10921;BME280;5513;50.580;8.818;2023-05-13T04:37:59;99368.38;;;11.00;100.00
10921;BME280;5513;50.580;8.818;2023-05-13T04:40:34;99370.41;;;11.09;100.00
10921;BME280;5513;50.580;8.818;2023-05-13T04:43:03;99372.22;;;11.23;100.00
10921;BME280;5513;50.580;8.818;2023-05-13T04:45:33;99373.53;;;11.16;100.00
10921;BME280;5513;50.580;8.818;2023-05-13T04:48:04;99373.16;;;11.22;100.00
10921;BME280;5513;50.580;8.818;2023-05-13T04:50:33;99373.59;;;11.29;100.00
10921;BME280;5513;50.580;8.818;2023-05-13T04:53:09;99378.63;;;11.33;100.00
10921;BME280;5513;50.580;8.818;2023-05-13T04:55:41;99379.28;;;11.37;100.00
10921;BME280;5513;50.580;8.818;2023-05-13T04:58:09;99377.50;;;11.23;100.00
10921;BME280;5513;50.580;8.818;2023-05-13T05:00:38;99382.72;;;11.25;100.00
10921;BME280;5513;50.580;8.818;2023-05-13T05:03:06;99383.56;;;11.39;100.00
10921;BME280;5513;50.580;8.818;2023-05-13T05:05:35;99371.06;;;11.27;100.00
10921;BME280;5513;50.580;8.818;2023-05-13T05:08:06;99379.00;;;11.41;100.00
10921;BME280;5513;50.580;8.818;2023-05-13T05:10:35;99386.53;;;11.47;100.00
10921;BME280;5513;50.580;8.818;2023-05-13T05:13:05;99391.94;;;11.60;100.00
10921;BME280;5513;50.580;8.818;2023-05-13T05:15:34;99392.09;;;11.71;100.00
10921;BME280;5513;50.580;8.818;2023-05-13T05:18:04;99386.03;;;11.69;100.00
10921;BME280;5513;50.580;8.818;2023-05-13T05:20:35;99389.72;;;11.67;100.00
10921;BME280;5513;50.580;8.818;2023-05-13T05:23:03;99398.44;;;11.69;100.00
10921;BME280;5513;50.580;8.818;2023-05-13T05:25:31;99395.78;;;11.83;100.00
10921;BME280;5513;50.580;8.818;2023-05-13T05:28:01;99399.94;;;11.87;100.00
10921;BME280;5513;50.580;8.818;2023-05-13T05:30:33;99409.25;;;11.80;100.00
10921;BME280;5513;50.580;8.818;2023-05-13T05:33:06;99406.38;;;11.83;100.00
10921;BME280;5513;50.580;8.818;2023-05-13T05:35:34;99398.06;;;12.02;100.00
10921;BME280;5513;50.580;8.818;2023-05-13T05:38:05;99404.22;;;12.02;100.00
10921;BME280;5513;50.580;8.818;2023-05-13T05:40:34;99403.00;;;12.08;100.00
10921;BME280;5513;50.580;8.818;2023-05-13T05:43:04;99414.47;;;12.21;100.00
10921;BME280;5513;50.580;8.818;2023-05-13T05:45:35;99419.19;;;12.30;100.00
10921;BME280;5513;50.580;8.818;2023-05-13T05:48:05;99420.88;;;12.31;100.00
10921;BME280;5513;50.580;8.818;2023-05-13T05:50:35;99415.91;;;12.40;100.00
10921;BME280;5513;50.580;8.818;2023-05-13T05:53:03;99410.09;;;12.47;100.00
10921;BME280;5513;50.580;8.818;2023-05-13T05:55:32;99405.84;;;12.57;100.00
10921;BME280;5513;50.580;8.818;2023-05-13T05:58:02;99414.44;;;12.61;100.00
10921;BME280;5513;50.580;8.818;2023-05-13T06:00:31;99415.41;;;12.47;100.00
10921;BME280;5513;50.580;8.818;2023-05-13T06:03:03;99412.75;;;12.60;100.00
10921;BME280;5513;50.580;8.818;2023-05-13T06:05:32;99415.22;;;12.76;100.00
10921;BME280;5513;50.580;8.818;2023-05-13T06:08:02;99411.59;;;12.89;100.00
10921;BME280;5513;50.580;8.818;2023-05-13T06:10:30;99409.88;;;13.01;100.00
10921;BME280;5513;50.580;8.818;2023-05-13T06:12:58;99402.03;;;13.12;100.00
10921;BME280;5513;50.580;8.818;2023-05-13T06:15:28;99403.19;;;13.21;100.00
10921;BME280;5513;50.580;8.818;2023-05-13T06:17:57;99396.47;;;13.28;100.00
10921;BME280;5513;50.580;8.818;2023-05-13T06:20:27;99401.03;;;13.39;100.00
10921;BME280;5513;50.580;8.818;2023-05-13T06:22:56;99407.41;;;13.49;100.00
10921;BME280;5513;50.580;8.818;2023-05-13T06:25:24;99389.19;;;13.56;100.00
10921;BME280;5513;50.580;8.818;2023-05-13T06:27:53;99394.63;;;13.54;100.00
10921;BME280;5513;50.580;8.818;2023-05-13T06:30:21;99395.31;;;13.69;100.00
10921;BME280;5513;50.580;8.818;2023-05-13T06:32:50;99387.91;;;13.49;100.00
10921;BME280;5513;50.580;8.818;2023-05-13T06:35:29;99393.66;;;13.55;100.00
10921;BME280;5513;50.580;8.818;2023-05-13T06:37:57;99387.06;;;13.61;100.00
10921;BME280;5513;50.580;8.818;2023-05-13T06:40:26;99392.31;;;13.73;100.00
10921;BME280;5513;50.580;8.818;2023-05-13T06:42:54;99392.03;;;13.89;100.00
10921;BME280;5513;50.580;8.818;2023-05-13T06:45:23;99384.19;;;13.99;100.00
10921;BME280;5513;50.580;8.818;2023-05-13T06:47:52;99389.38;;;14.13;100.00
10921;BME280;5513;50.580;8.818;2023-05-13T06:50:20;99388.69;;;14.22;100.00
10921;BME280;5513;50.580;8.818;2023-05-13T06:52:51;99388.47;;;14.37;100.00
10921;BME280;5513;50.580;8.818;2023-05-13T06:55:19;99389.28;;;14.50;100.00
10921;BME280;5513;50.580;8.818;2023-05-13T06:57:48;99388.31;;;14.51;100.00
10921;BME280;5513;50.580;8.818;2023-05-13T07:00:17;99381.91;;;14.65;100.00
10921;BME280;5513;50.580;8.818;2023-05-13T07:02:46;99384.63;;;14.87;100.00
10921;BME280;5513;50.580;8.818;2023-05-13T07:05:15;99382.56;;;15.02;100.00
10921;BME280;5513;50.580;8.818;2023-05-13T07:07:44;99373.81;;;15.22;100.00
10921;BME280;5513;50.580;8.818;2023-05-13T07:10:15;99373.34;;;15.39;100.00
10921;BME280;5513;50.580;8.818;2023-05-13T07:12:43;99380.63;;;15.37;100.00
10921;BME280;5513;50.580;8.818;2023-05-13T07:15:11;99375.13;;;15.61;100.00
10921;BME280;5513;50.580;8.818;2023-05-13T07:17:39;99375.63;;;15.66;100.00
10921;BME280;5513;50.580;8.818;2023-05-13T07:20:08;99373.41;;;15.83;100.00
10921;BME280;5513;50.580;8.818;2023-05-13T07:22:37;99376.97;;;16.04;100.00
10921;BME280;5513;50.580;8.818;2023-05-13T07:25:06;99376.78;;;16.17;100.00
10921;BME280;5513;50.580;8.818;2023-05-13T07:27:36;99372.09;;;16.30;100.00
10921;BME280;5513;50.580;8.818;2023-05-13T07:30:06;99369.38;;;16.41;100.00
10921;BME280;5513;50.580;8.818;2023-05-13T07:32:34;99372.28;;;16.59;100.00
10921;BME280;5513;50.580;8.818;2023-05-13T07:35:03;99362.31;;;16.40;100.00
10921;BME280;5513;50.580;8.818;2023-05-13T07:37:32;99356.59;;;16.66;100.00
10921;BME280;5513;50.580;8.818;2023-05-13T07:40:00;99359.78;;;16.59;100.00
10921;BME280;5513;50.580;8.818;2023-05-13T07:42:30;99348.00;;;16.83;100.00
10921;BME280;5513;50.580;8.818;2023-05-13T07:45:00;99347.09;;;17.03;100.00
10921;BME280;5513;50.580;8.818;2023-05-13T07:47:28;99350.34;;;17.07;100.00
10921;BME280;5513;50.580;8.818;2023-05-13T07:49:57;99350.13;;;17.20;100.00
10921;BME280;5513;50.580;8.818;2023-05-13T07:52:28;99338.66;;;17.58;100.00
10921;BME280;5513;50.580;8.818;2023-05-13T07:54:56;99340.91;;;17.53;100.00
10921;BME280;5513;50.580;8.818;2023-05-13T07:57:24;99334.53;;;17.44;100.00
10921;BME280;5513;50.580;8.818;2023-05-13T07:59:53;99337.94;;;17.56;100.00
10921;BME280;5513;50.580;8.818;2023-05-13T08:02:22;99341.59;;;17.45;100.00
10921;BME280;5513;50.580;8.818;2023-05-13T08:04:51;99332.53;;;17.36;100.00
10921;BME280;5513;50.580;8.818;2023-05-13T08:07:20;99340.97;;;17.82;100.00
10921;BME280;5513;50.580;8.818;2023-05-13T08:09:48;99336.31;;;17.93;100.00
10921;BME280;5513;50.580;8.818;2023-05-13T08:12:17;99338.44;;;18.09;100.00
10921;BME280;5513;50.580;8.818;2023-05-13T08:14:45;99342.81;;;18.10;100.00
10921;BME280;5513;50.580;8.818;2023-05-13T08:17:14;99348.19;;;18.00;100.00
10921;BME280;5513;50.580;8.818;2023-05-13T08:19:46;99346.63;;;17.88;100.00
10921;BME280;5513;50.580;8.818;2023-05-13T08:22:15;99344.94;;;17.87;100.00
10921;BME280;5513;50.580;8.818;2023-05-13T08:24:43;99345.09;;;17.86;100.00
10921;BME280;5513;50.580;8.818;2023-05-13T08:27:11;99347.50;;;17.98;100.00
10921;BME280;5513;50.580;8.818;2023-05-13T08:29:40;99349.47;;;18.16;100.00
10921;BME280;5513;50.580;8.818;2023-05-13T08:32:08;99342.41;;;17.95;100.00
10921;BME280;5513;50.580;8.818;2023-05-13T08:34:38;99332.66;;;18.23;100.00
10921;BME280;5513;50.580;8.818;2023-05-13T08:37:08;99329.69;;;18.26;100.00
10921;BME280;5513;50.580;8.818;2023-05-13T08:39:37;99340.25;;;18.47;100.00
10921;BME280;5513;50.580;8.818;2023-05-13T08:42:09;99328.13;;;18.43;100.00
10921;BME280;5513;50.580;8.818;2023-05-13T08:44:41;99329.72;;;18.17;100.00
10921;BME280;5513;50.580;8.818;2023-05-13T08:47:15;99331.09;;;18.40;100.00
10921;BME280;5513;50.580;8.818;2023-05-13T08:49:49;99338.56;;;18.66;100.00
10921;BME280;5513;50.580;8.818;2023-05-13T08:52:21;99330.09;;;18.98;100.00
10921;BME280;5513;50.580;8.818;2023-05-13T08:54:49;99333.97;;;18.85;100.00
10921;BME280;5513;50.580;8.818;2023-05-13T08:57:18;99331.78;;;18.99;100.00
10921;BME280;5513;50.580;8.818;2023-05-13T08:59:46;99332.16;;;19.13;100.00
10921;BME280;5513;50.580;8.818;2023-05-13T09:02:14;99331.53;;;19.02;100.00
10921;BME280;5513;50.580;8.818;2023-05-13T09:04:44;99328.44;;;19.24;100.00
10921;BME280;5513;50.580;8.818;2023-05-13T09:07:13;99317.19;;;19.38;100.00
10921;BME280;5513;50.580;8.818;2023-05-13T09:09:43;99332.97;;;19.51;100.00
10921;BME280;5513;50.580;8.818;2023-05-13T09:12:12;99330.13;;;19.53;100.00
10921;BME280;5513;50.580;8.818;2023-05-13T09:15:00;99320.69;;;19.21;100.00
10921;BME280;5513;50.580;8.818;2023-05-13T09:17:29;99326.00;;;19.31;100.00
10921;BME280;5513;50.580;8.818;2023-05-13T09:20:06;99329.03;;;19.73;100.00
10921;BME280;5513;50.580;8.818;2023-05-13T09:22:34;99325.41;;;19.64;100.00
10921;BME280;5513;50.580;8.818;2023-05-13T09:25:07;99328.69;;;19.58;100.00
10921;BME280;5513;50.580;8.818;2023-05-13T09:27:40;99329.28;;;19.80;100.00
10921;BME280;5513;50.580;8.818;2023-05-13T09:30:09;99330.97;;;19.81;100.00
10921;BME280;5513;50.580;8.818;2023-05-13T09:32:41;99324.25;;;19.39;100.00
10921;BME280;5513;50.580;8.818;2023-05-13T09:35:12;99331.41;;;19.94;100.00
10921;BME280;5513;50.580;8.818;2023-05-13T09:37:44;99322.56;;;20.37;94.03
10921;BME280;5513;50.580;8.818;2023-05-13T09:40:15;99323.19;;;20.13;91.72
10921;BME280;5513;50.580;8.818;2023-05-13T09:42:45;99315.53;;;20.00;90.97
10921;BME280;5513;50.580;8.818;2023-05-13T09:45:17;99320.84;;;20.36;87.71
10921;BME280;5513;50.580;8.818;2023-05-13T09:47:49;99327.59;;;20.58;83.86
10921;BME280;5513;50.580;8.818;2023-05-13T09:50:19;99322.22;;;20.58;83.09
10921;BME280;5513;50.580;8.818;2023-05-13T09:52:49;99323.06;;;20.84;81.12
10921;BME280;5513;50.580;8.818;2023-05-13T09:55:21;99318.94;;;20.72;80.47
10921;BME280;5513;50.580;8.818;2023-05-13T09:57:52;99317.97;;;21.07;78.78
10921;BME280;5513;50.580;8.818;2023-05-13T10:00:20;99313.53;;;21.32;72.83
10921;BME280;5513;50.580;8.818;2023-05-13T10:02:59;99309.69;;;21.35;76.41
10921;BME280;5513;50.580;8.818;2023-05-13T10:05:28;99325.06;;;21.17;78.78
10921;BME280;5513;50.580;8.818;2023-05-13T10:07:57;99321.88;;;21.55;73.91
10921;BME280;5513;50.580;8.818;2023-05-13T10:10:30;99314.16;;;21.68;75.10
10921;BME280;5513;50.580;8.818;2023-05-13T10:13:03;99315.44;;;21.48;76.49
10921;BME280;5513;50.580;8.818;2023-05-13T10:15:33;99301.50;;;21.19;80.18
10921;BME280;5513;50.580;8.818;2023-05-13T10:18:03;99298.50;;;21.88;79.56
10921;BME280;5513;50.580;8.818;2023-05-13T10:20:33;99297.31;;;21.66;83.09
10921;BME280;5513;50.580;8.818;2023-05-13T10:23:02;99290.84;;;21.51;77.33
10921;BME280;5513;50.580;8.818;2023-05-13T10:25:32;99299.75;;;21.35;77.36
10921;BME280;5513;50.580;8.818;2023-05-13T10:28:02;99292.53;;;21.10;74.26
10921;BME280;5513;50.580;8.818;2023-05-13T10:30:31;99292.75;;;21.67;73.62
10921;BME280;5513;50.580;8.818;2023-05-13T10:33:02;99286.75;;;22.14;70.51
10921;BME280;5513;50.580;8.818;2023-05-13T10:35:33;99281.91;;;22.97;58.83
10921;BME280;5513;50.580;8.818;2023-05-13T10:38:09;99283.06;;;23.03;57.67
10921;BME280;5513;50.580;8.818;2023-05-13T10:40:54;99273.28;;;23.33;59.51
10921;BME280;5513;50.580;8.818;2023-05-13T10:43:27;99276.75;;;23.81;52.64
10921;BME280;5513;50.580;8.818;2023-05-13T10:45:56;99281.69;;;23.77;49.48
10921;BME280;5513;50.580;8.818;2023-05-13T10:48:25;99272.53;;;23.78;49.94
10921;BME280;5513;50.580;8.818;2023-05-13T10:50:55;99269.72;;;23.40;49.37
10921;BME280;5513;50.580;8.818;2023-05-13T10:53:28;99270.84;;;24.00;50.39
10921;BME280;5513;50.580;8.818;2023-05-13T10:55:58;99271.44;;;24.10;55.40
10921;BME280;5513;50.580;8.818;2023-05-13T10:58:28;99264.53;;;23.62;58.18
10921;BME280;5513;50.580;8.818;2023-05-13T11:01:12;99271.66;;;23.55;47.19
10921;BME280;5513;50.580;8.818;2023-05-13T11:03:50;99267.66;;;23.11;50.42
10921;BME280;5513;50.580;8.818;2023-05-13T11:06:20;99268.34;;;23.76;49.88
10921;BME280;5513;50.580;8.818;2023-05-13T11:08:50;99262.44;;;23.72;49.45
10921;BME280;5513;50.580;8.818;2023-05-13T11:11:29;99253.31;;;23.96;45.65
10921;BME280;5513;50.580;8.818;2023-05-13T11:14:06;99249.63;;;23.89;46.65
10921;BME280;5513;50.580;8.818;2023-05-13T11:16:36;99258.72;;;23.42;48.77
10921;BME280;5513;50.580;8.818;2023-05-13T11:19:08;99254.03;;;22.97;48.74
10921;BME280;5513;50.580;8.818;2023-05-13T11:21:48;99249.09;;;22.37;49.32
10921;BME280;5513;50.580;8.818;2023-05-13T11:24:18;99257.53;;;23.05;51.23
10921;BME280;5513;50.580;8.818;2023-05-13T11:26:52;99245.41;;;23.63;48.94
10921;BME280;5513;50.580;8.818;2023-05-13T11:29:29;99233.09;;;24.44;47.52
10921;BME280;5513;50.580;8.818;2023-05-13T11:31:59;99237.47;;;24.08;44.54
10921;BME280;5513;50.580;8.818;2023-05-13T11:34:28;99226.50;;;24.24;46.54
10921;BME280;5513;50.580;8.818;2023-05-13T11:37:06;99231.97;;;24.16;43.32
10921;BME280;5513;50.580;8.818;2023-05-13T11:39:37;99230.75;;;24.04;43.45
10921;BME280;5513;50.580;8.818;2023-05-13T11:42:09;99231.91;;;24.24;43.10
10921;BME280;5513;50.580;8.818;2023-05-13T11:44:44;99237.84;;;24.05;38.87
10921;BME280;5513;50.580;8.818;2023-05-13T11:47:12;99220.28;;;24.68;39.61
10921;BME280;5513;50.580;8.818;2023-05-13T11:49:42;99232.16;;;24.67;39.02
10921;BME280;5513;50.580;8.818;2023-05-13T11:52:12;99229.44;;;24.96;38.85
10921;BME280;5513;50.580;8.818;2023-05-13T11:54:45;99227.19;;;24.41;40.01
10921;BME280;5513;50.580;8.818;2023-05-13T11:57:19;99232.06;;;24.08;41.28
10921;BME280;5513;50.580;8.818;2023-05-13T11:59:54;99237.94;;;24.11;42.96
10921;BME280;5513;50.580;8.818;2023-05-13T12:02:25;99237.66;;;23.60;45.81
10921;BME280;5513;50.580;8.818;2023-05-13T12:04:54;99239.09;;;23.17;43.82
10921;BME280;5513;50.580;8.818;2023-05-13T12:07:24;99241.53;;;22.96;43.65
10921;BME280;5513;50.580;8.818;2023-05-13T12:09:55;99242.16;;;23.06;44.46
10921;BME280;5513;50.580;8.818;2023-05-13T12:12:26;99241.41;;;22.81;44.49
10921;BME280;5513;50.580;8.818;2023-05-13T12:14:58;99235.91;;;22.58;42.77
10921;BME280;5513;50.580;8.818;2023-05-13T12:17:29;99240.34;;;22.43;45.77
10921;BME280;5513;50.580;8.818;2023-05-13T12:20:10;99239.63;;;21.51;52.54
10921;BME280;5513;50.580;8.818;2023-05-13T12:22:51;99251.13;;;20.69;55.88
10921;BME280;5513;50.580;8.818;2023-05-13T12:25:41;99241.53;;;20.74;60.24
10921;BME280;5513;50.580;8.818;2023-05-13T12:28:15;99252.03;;;20.34;60.57
10921;BME280;5513;50.580;8.818;2023-05-13T12:30:53;99244.22;;;20.66;62.25
10921;BME280;5513;50.580;8.818;2023-05-13T12:33:23;99242.22;;;20.68;62.62
10921;BME280;5513;50.580;8.818;2023-05-13T12:35:53;99245.00;;;21.35;59.58
10921;BME280;5513;50.580;8.818;2023-05-13T12:40:51;99253.00;;;22.26;53.90
10921;BME280;5513;50.580;8.818;2023-05-13T12:43:23;99243.22;;;22.25;53.69
10921;BME280;5513;50.580;8.818;2023-05-13T12:45:52;99242.22;;;22.02;53.25
10921;BME280;5513;50.580;8.818;2023-05-13T12:48:23;99242.94;;;22.75;53.38
10921;BME280;5513;50.580;8.818;2023-05-13T12:50:53;99243.56;;;23.33;50.45
10921;BME280;5513;50.580;8.818;2023-05-13T12:53:25;99239.72;;;22.88;48.71
10921;BME280;5513;50.580;8.818;2023-05-13T12:55:54;99240.69;;;22.95;48.04
10921;BME280;5513;50.580;8.818;2023-05-13T12:58:26;99243.28;;;22.80;48.62
10921;BME280;5513;50.580;8.818;2023-05-13T13:00:54;99242.38;;;22.33;49.70
10921;BME280;5513;50.580;8.818;2023-05-13T13:03:23;99241.50;;;22.48;51.46
10921;BME280;5513;50.580;8.818;2023-05-13T13:05:52;99246.75;;;21.68;53.61
10921;BME280;5513;50.580;8.818;2023-05-13T13:08:20;99251.34;;;22.09;52.05
10921;BME280;5513;50.580;8.818;2023-05-13T13:10:48;99243.75;;;22.20;49.63
10921;BME280;5513;50.580;8.818;2023-05-13T13:13:16;99247.13;;;22.22;50.34
10921;BME280;5513;50.580;8.818;2023-05-13T13:15:46;99247.69;;;22.73;50.63
10921;BME280;5513;50.580;8.818;2023-05-13T13:18:15;99245.97;;;22.89;48.02
10921;BME280;5513;50.580;8.818;2023-05-13T13:20:43;99254.22;;;23.57;48.82